Time;durP1;ratioP1;P1;durP2;ratioP2;P2;SDS_P1;SDS_P2;PMS_P1;PMS_P2;Temp;Humidity;BMP_temperature;BMP_pressure;BME280_temperature;BME280_humidity;BME280_pressure;Samples;Min_cycle;Max_cycle;Signal;HPM_P1;HPM_P2
2021/12/17 00:01:14;;;;;;;4.97;4.35;;;;;;;1.12;100.00;62115.81;6199564;23;20290;-76
2021/12/17 00:03:45;;;;;;;5.47;4.47;;;;;;;1.18;100.00;62119.44;6199258;23;20186;-75
2021/12/17 00:06:28;;;;;;;6.70;5.30;;;;;;;1.13;100.00;62114.84;6198017;23;20400;-76
2021/12/17 00:08:59;;;;;;;3.45;2.97;;;;;;;1.16;100.00;62119.91;6197504;23;20220;-76
2021/12/17 00:11:27;;;;;;;6.90;4.15;;;;;;;1.22;100.00;62125.53;6197301;23;20402;-76
2021/12/17 00:13:55;;;;;;;5.88;3.75;;;;;;;1.21;100.00;62124.53;6196267;23;20216;-76
2021/12/17 00:16:26;;;;;;;3.25;3.05;;;;;;;1.22;100.00;62128.06;6196805;23;20197;-75
2021/12/17 00:19:08;;;;;;;3.70;3.40;;;;;;;1.35;100.00;62133.88;6196580;23;20518;-76
2021/12/17 00:48:23;;;;;;;3.90;3.60;;;;;;;1.51;100.00;62152.78;6196607;23;20166;-75
2021/12/17 00:49:26;;;;;;;2.88;2.67;;;;;;;1.53;100.00;62162.38;6195736;23;20343;-77
2021/12/17 00:51:58;;;;;;;3.00;2.80;;;;;;;1.53;100.00;62157.34;6196710;23;20240;-76
2021/12/17 00:54:35;;;;;;;4.95;3.67;;;;;;;1.54;100.00;62155.88;6196457;23;20186;-77
2021/12/17 00:57:09;;;;;;;6.55;4.28;;;;;;;1.52;100.00;62156.34;6196378;23;20197;-76
2021/12/17 00:59:36;;;;;;;8.27;3.53;;;;;;;1.55;100.00;62156.91;6195998;23;20189;-75
2021/12/17 01:02:07;;;;;;;2.72;2.53;;;;;;;1.54;100.00;62158.38;6195955;23;20221;-76
2021/12/17 01:04:35;;;;;;;4.75;3.40;;;;;;;1.54;100.00;62153.88;6196181;23;20197;-76
2021/12/17 01:07:02;;;;;;;3.40;3.08;;;;;;;1.55;100.00;62159.41;6196486;23;20241;-76
2021/12/17 01:09:30;;;;;;;4.75;3.28;;;;;;;1.61;100.00;62165.56;6196418;23;20514;-76
2021/12/17 01:11:58;;;;;;;4.10;3.80;;;;;;;1.61;100.00;62158.03;6196532;23;20178;-75
2021/12/17 01:14:26;;;;;;;5.85;3.88;;;;;;;1.66;100.00;62170.69;6198465;23;20396;-76
2021/12/17 01:16:53;;;;;;;3.75;3.13;;;;;;;1.62;100.00;62164.59;6197357;23;20529;-75
2021/12/17 01:19:30;;;;;;;3.42;3.13;;;;;;;1.69;100.00;62173.78;6195393;23;20542;-76
2021/12/17 01:22:24;;;;;;;3.83;3.42;;;;;;;1.61;100.00;62166.06;6195890;23;20170;-76
2021/12/17 01:24:53;;;;;;;4.28;3.13;;;;;;;1.65;100.00;62167.69;6196344;23;20189;-76
2021/12/17 01:35:37;;;;;;;3.22;3.03;;;;;;;1.66;100.00;62171.22;6195950;23;20186;-76
2021/12/17 01:41:12;;;;;;;3.30;2.95;;;;;;;1.61;100.00;62158.56;6196608;23;20170;-76
2021/12/17 01:43:43;;;;;;;4.68;3.58;;;;;;;1.58;100.00;62160.50;6198997;23;20265;-76
2021/12/17 01:46:13;;;;;;;4.47;3.42;;;;;;;1.59;100.00;62166.03;6197908;23;20198;-76
2021/12/17 01:48:56;;;;;;;5.60;3.40;;;;;;;1.59;100.00;62164.03;6195793;23;20249;-76
2021/12/17 01:57:00;;;;;;;4.88;3.30;;;;;;;1.57;100.00;62158.97;6196220;23;20200;-76
2021/12/17 01:59:35;;;;;;;3.67;2.80;;;;;;;1.55;100.00;62157.41;6195012;23;20511;-76
2021/12/17 02:02:06;;;;;;;4.47;3.47;;;;;;;1.50;100.00;62151.78;6195480;23;20166;-76
2021/12/17 02:04:34;;;;;;;4.28;2.53;;;;;;;1.55;100.00;62154.91;6194290;23;20194;-75
2021/12/17 02:07:02;;;;;;;4.32;3.88;;;;;;;1.48;100.00;62144.69;6195261;23;20217;-78
2021/12/17 02:10:06;;;;;;;4.50;3.13;;;;;;;1.43;100.00;62142.59;6196256;23;20182;-77
2021/12/17 02:29:27;;;;;;;4.13;3.25;;;;;;;1.48;100.00;62154.72;6196527;23;20201;-75
2021/12/17 02:31:59;;;;;;;5.30;3.60;;;;;;;1.54;100.00;62158.38;6202533;23;20170;-76
2021/12/17 02:34:40;;;;;;;5.40;3.30;;;;;;;1.46;100.00;62145.66;6210155;23;20205;-76
2021/12/17 02:37:12;;;;;;;3.85;3.42;;;;;;;1.47;100.00;62148.69;6210105;23;20200;-76
2021/12/17 02:39:59;;;;;;;7.18;4.35;;;;;;;1.47;100.00;62146.69;6209632;23;20434;-76
2021/12/17 02:42:49;;;;;;;3.97;3.10;;;;;;;1.44;100.00;62143.09;6206474;23;20162;-76
2021/12/17 02:45:35;;;;;;;3.75;3.42;;;;;;;1.42;100.00;62143.56;6197248;23;20224;-77
2021/12/17 02:48:06;;;;;;;6.00;4.30;;;;;;;1.38;100.00;62144.47;6195795;23;20228;-77
2021/12/17 02:50:34;;;;;;;3.83;3.53;;;;;;;1.42;100.00;62149.09;6195072;23;20174;-76
2021/12/17 02:53:07;;;;;;;4.32;3.08;;;;;;;1.44;100.00;62145.59;6195267;23;20270;-76
2021/12/17 02:55:36;;;;;;;4.18;3.15;;;;;;;1.41;100.00;62145.56;6195658;23;20467;-76
2021/12/17 02:58:04;;;;;;;4.43;3.78;;;;;;;1.46;100.00;62148.19;6194375;23;20238;-78
2021/12/17 03:00:32;;;;;;;3.90;3.55;;;;;;;1.46;100.00;62147.66;6195545;23;20170;-77
2021/12/17 03:03:00;;;;;;;3.97;3.60;;;;;;;1.46;100.00;62153.19;6196565;23;20219;-77
2021/12/17 03:05:28;;;;;;;4.93;4.43;;;;;;;1.52;100.00;62156.84;6197261;23;20170;-77
2021/12/17 03:07:56;;;;;;;5.70;3.47;;;;;;;1.57;100.00;62156.44;6195845;23;20380;-76
2021/12/17 03:10:25;;;;;;;4.28;2.72;;;;;;;1.67;100.00;62171.72;6195497;23;20170;-78
2021/12/17 03:12:57;;;;;;;3.67;3.35;;;;;;;1.67;100.00;62169.72;6196623;23;20534;-78
2021/12/17 03:15:33;;;;;;;5.07;4.30;;;;;;;1.76;100.00;62175.94;6197972;23;20424;-76
2021/12/17 03:18:36;;;;;;;4.35;3.65;;;;;;;1.77;100.00;62182.50;6198177;23;20208;-79
2021/12/17 03:23:45;;;;;;;4.00;3.60;;;;;;;1.87;100.00;62190.25;6197060;23;20245;-76
2021/12/17 03:26:15;;;;;;;3.88;3.53;;;;;;;1.93;100.00;62196.41;6197322;23;20216;-76
2021/12/17 03:28:46;;;;;;;4.88;3.65;;;;;;;1.96;100.00;62199.50;6197688;23;20422;-77
2021/12/17 03:31:13;;;;;;;5.28;3.90;;;;;;;1.98;100.00;62201.03;6196527;23;20445;-76
2021/12/17 03:33:43;;;;;;;4.53;3.92;;;;;;;1.98;100.00;62201.03;6197101;23;20190;-77
2021/12/17 03:36:11;;;;;;;3.20;3.00;;;;;;;1.98;100.00;62201.56;6197482;23;20336;-76
2021/12/17 03:38:40;;;;;;;3.17;2.88;;;;;;;1.96;100.00;62201.50;6197654;23;20229;-76
2021/12/17 03:41:18;;;;;;;3.60;3.05;;;;;;;2.06;100.00;62209.75;6195654;23;20212;-76
2021/12/17 03:43:47;;;;;;;4.85;3.90;;;;;;;2.08;100.00;62214.34;6197324;23;20181;-75
2021/12/17 03:46:15;;;;;;;4.15;3.80;;;;;;;2.06;100.00;62216.78;6197175;23;20236;-76
2021/12/17 03:48:42;;;;;;;5.38;4.03;;;;;;;2.07;100.00;62207.78;6196585;23;20214;-76
2021/12/17 03:51:14;;;;;;;4.75;3.72;;;;;;;1.92;100.00;62200.41;6196674;23;20495;-76
2021/12/17 03:53:42;;;;;;;5.30;3.97;;;;;;;1.99;100.00;62205.09;6197139;23;20194;-75
2021/12/17 03:56:10;;;;;;;5.47;3.88;;;;;;;2.03;100.00;62206.16;6197067;23;20189;-77
2021/12/17 03:58:37;;;;;;;5.13;3.15;;;;;;;2.04;100.00;62210.22;6196784;23;20198;-76
2021/12/17 04:01:06;;;;;;;2.75;2.60;;;;;;;1.99;100.00;62205.09;6196253;23;20166;-76
2021/12/17 04:03:33;;;;;;;4.15;3.80;;;;;;;2.03;100.00;62204.19;6196806;23;20393;-75
2021/12/17 04:06:01;;;;;;;3.70;3.30;;;;;;;1.94;100.00;62196.94;6197147;23;20181;-77
2021/12/17 04:08:27;;;;;;;3.70;3.22;;;;;;;1.95;100.00;62200.97;6197127;23;20425;-76
2021/12/17 04:11:02;;;;;;;3.67;2.90;;;;;;;1.94;100.00;62202.47;6197277;23;20393;-76
2021/12/17 04:13:33;;;;;;;2.92;2.67;;;;;;;2.00;100.00;62205.59;6196123;23;20527;-76
2021/12/17 04:16:03;;;;;;;2.95;2.72;;;;;;;1.99;100.00;62207.59;6196314;23;20166;-76
2021/12/17 04:18:33;;;;;;;3.35;3.05;;;;;;;2.00;100.00;62198.06;6196698;23;20201;-76
2021/12/17 04:21:01;;;;;;;2.72;2.53;;;;;;;1.96;100.00;62201.50;6196083;23;20534;-76
2021/12/17 04:23:28;;;;;;;2.85;2.58;;;;;;;1.88;100.00;62190.78;6196852;23;20397;-76
2021/12/17 04:25:55;;;;;;;2.50;2.33;;;;;;;1.94;100.00;62201.94;6196949;23;20182;-76
2021/12/17 04:28:22;;;;;;;2.38;2.17;;;;;;;1.81;100.00;62188.59;6196767;23;20244;-76
2021/12/17 04:30:50;;;;;;;2.63;2.42;;;;;;;1.86;100.00;62188.72;6197165;23;20178;-76
2021/12/17 04:33:17;;;;;;;2.70;1.90;;;;;;;1.73;100.00;62175.38;6197646;23;20241;-76
2021/12/17 04:35:46;;;;;;;2.53;2.22;;;;;;;1.76;100.00;62180.97;6198220;23;20180;-76
2021/12/17 04:38:14;;;;;;;4.03;1.88;;;;;;;1.85;100.00;62187.69;6202209;23;20208;-75
2021/12/17 04:40:43;;;;;;;2.33;2.22;;;;;;;1.76;100.00;62178.97;6199975;23;20174;-76
2021/12/17 04:43:19;;;;;;;2.70;2.50;;;;;;;1.90;100.00;62195.31;6198009;23;20213;-77
2021/12/17 04:45:53;;;;;;;3.10;2.85;;;;;;;1.91;100.00;62191.84;6196870;23;20474;-76
2021/12/17 04:59:27;;;;;;;4.22;3.83;;;;;;;2.10;100.00;62210.84;6197004;23;20197;-76
2021/12/17 05:01:53;;;;;;;19.77;12.90;;;;;;;2.19;100.00;62223.09;6197902;23;20463;-77
2021/12/17 05:04:21;;;;;;;4.45;3.70;;;;;;;2.03;100.00;62209.19;6196761;23;20198;-76
2021/12/17 05:06:49;;;;;;;4.05;3.72;;;;;;;2.01;100.00;62207.16;6196771;23;20162;-77
2021/12/17 05:09:26;;;;;;;13.20;9.68;;;;;;;2.05;100.00;62211.25;6195608;23;20564;-76
2021/12/17 05:20:23;;;;;;;3.15;2.85;;;;;;;1.66;100.00;62170.69;6199515;23;20215;-76
2021/12/17 05:22:56;;;;;;;4.53;1.73;;;;;;;1.60;100.00;62165.06;6204513;23;20186;-77
2021/12/17 05:25:26;;;;;;;1.92;1.83;;;;;;;1.66;100.00;62170.69;6210522;23;20230;-76
2021/12/17 05:27:53;;;;;;;1.98;1.00;;;;;;;1.80;100.00;62185.06;6212557;23;20198;-76
2021/12/17 05:30:20;;;;;;;0.75;0.75;;;;;;;1.93;100.00;62200.94;6212562;23;20170;-76
2021/12/17 05:32:47;;;;;;;1.45;1.35;;;;;;;2.03;100.00;62206.69;6211493;23;20190;-77
2021/12/17 05:35:13;;;;;;;1.00;1.00;;;;;;;2.06;100.00;62209.25;6210099;23;20193;-76
2021/12/17 05:37:40;;;;;;;1.60;1.50;;;;;;;2.09;100.00;62212.31;6205827;23;20201;-76
2021/12/17 05:40:10;;;;;;;0.73;0.73;;;;;;;2.16;100.00;62219.50;6204215;23;20171;-76
2021/12/17 05:42:37;;;;;;;0.60;0.60;;;;;;;2.24;100.00;62227.75;6203247;23;20197;-76
2021/12/17 05:45:09;;;;;;;0.52;0.52;;;;;;;2.26;100.00;62229.78;6202686;23;20414;-77
2021/12/17 05:47:36;;;;;;;1.13;1.02;;;;;;;2.27;100.00;62233.31;6198930;23;20194;-76
2021/12/17 05:50:03;;;;;;;0.90;0.90;;;;;;;2.23;100.00;62227.22;6200260;23;20196;-76
2021/12/17 05:52:30;;;;;;;1.17;1.17;;;;;;;2.15;100.00;62221.00;6198634;23;20197;-76
2021/12/17 05:54:57;;;;;;;1.58;1.48;;;;;;;2.05;100.00;62208.22;6197937;23;20192;-76
2021/12/17 05:57:25;;;;;;;0.88;0.70;;;;;;;2.08;100.00;62214.34;6199288;23;20202;-76
2021/12/17 05:59:51;;;;;;;0.90;0.90;;;;;;;2.09;100.00;62212.31;6197771;23;20212;-77
2021/12/17 06:02:19;;;;;;;1.40;1.38;;;;;;;2.21;100.00;62230.19;6197507;23;20170;-77
2021/12/17 06:04:46;;;;;;;1.80;1.10;;;;;;;2.26;100.00;62235.31;6202031;23;20348;-76
2021/12/17 06:07:14;;;;;;;0.80;0.80;;;;;;;2.25;100.00;62231.28;6199334;23;20216;-77
2021/12/17 06:09:41;;;;;;;1.23;1.13;;;;;;;2.23;100.00;62227.22;6199066;23;20180;-76
2021/12/17 06:12:08;;;;;;;1.30;1.20;;;;;;;2.25;100.00;62226.78;6201154;23;20217;-75
2021/12/17 06:14:36;;;;;;;2.10;1.50;;;;;;;2.40;100.00;62243.66;6197087;23;20194;-76
2021/12/17 06:17:03;;;;;;;1.30;1.20;;;;;;;2.43;100.00;62244.22;6196537;23;20174;-77
2021/12/17 06:19:30;;;;;;;1.20;1.20;;;;;;;2.48;100.00;62259.94;6196525;23;20194;-76
2021/12/17 06:21:58;;;;;;;1.30;1.30;;;;;;;2.46;100.00;62252.31;6196249;23;20166;-76
2021/12/17 06:24:25;;;;;;;1.27;1.15;;;;;;;2.49;100.00;62258.44;6195493;23;20209;-77
2021/12/17 06:26:52;;;;;;;1.00;1.00;;;;;;;2.53;100.00;62257.53;6196086;23;20189;-76
2021/12/17 06:29:19;;;;;;;1.15;1.10;;;;;;;2.54;100.00;62260.56;6196595;23;20218;-76
2021/12/17 06:31:47;;;;;;;1.88;1.20;;;;;;;2.59;100.00;62261.16;6195783;23;20183;-78
2021/12/17 06:34:14;;;;;;;1.40;1.17;;;;;;;2.65;100.00;62269.34;6196603;23;20198;-77
2021/12/17 06:36:40;;;;;;;1.35;1.30;;;;;;;2.60;100.00;62266.72;6196894;23;20186;-78
2021/12/17 06:39:07;;;;;;;1.10;1.10;;;;;;;2.53;100.00;62259.50;6196425;23;20244;-78
2021/12/17 06:41:35;;;;;;;1.65;1.48;;;;;;;2.55;100.00;62261.56;6196760;23;20221;-77
2021/12/17 06:44:02;;;;;;;1.65;1.55;;;;;;;2.53;100.00;62249.47;6195901;23;20185;-78
2021/12/17 06:46:36;;;;;;;2.20;1.40;;;;;;;2.61;100.00;62262.69;6196836;23;20193;-78
2021/12/17 06:49:20;;;;;;;1.27;1.17;;;;;;;2.47;100.00;62250.84;6194645;23;20499;-78
2021/12/17 06:54:49;;;;;;;1.35;1.25;;;;;;;2.38;100.00;62237.59;6195398;23;20205;-78
2021/12/17 07:05:58;;;;;;;2.20;1.95;;;;;;;2.44;100.00;62255.81;6195846;23;20236;-78
2021/12/17 07:11:17;;;;;;;2.30;2.20;;;;;;;2.43;100.00;62251.75;6161872;23;20201;-76
2021/12/17 07:22:04;;;;;;;3.70;3.33;;;;;;;2.48;100.00;62249.88;6196065;23;20216;-78
2021/12/17 07:32:50;;;;;;;4.65;4.15;;;;;;;2.36;100.00;62240.56;6197554;23;20194;-78
2021/12/17 07:41:04;;;;;;;4.90;4.15;;;;;;;2.19;100.00;62220.59;6103170;23;20229;-78
2021/12/17 07:43:37;;;;;;;5.32;4.15;;;;;;;2.28;100.00;62234.34;6103860;23;20199;-77
2021/12/17 07:46:06;;;;;;;4.05;3.65;;;;;;;2.36;100.00;62240.06;6148424;23;20178;-77
2021/12/17 07:48:34;;;;;;;5.53;4.47;;;;;;;2.32;100.00;62236.47;6194299;23;20245;-77
2021/12/17 07:51:03;;;;;;;3.92;3.60;;;;;;;2.35;100.00;62239.03;6194815;23;20170;-78
2021/12/17 07:53:32;;;;;;;5.53;4.80;;;;;;;2.17;100.00;62225.56;6196023;23;20499;-78
2021/12/17 07:56:00;;;;;;;4.72;4.30;;;;;;;2.33;100.00;62237.50;6196636;23;20201;-77
2021/12/17 07:58:28;;;;;;;4.00;3.70;;;;;;;2.31;100.00;62234.94;6196674;23;20219;-77
2021/12/17 08:00:55;;;;;;;3.90;3.50;;;;;;;2.46;100.00;62249.81;6198280;23;20178;-77
2021/12/17 08:03:22;;;;;;;4.22;3.92;;;;;;;2.50;100.00;62259.47;6198010;23;20245;-77
2021/12/17 08:05:49;;;;;;;4.28;3.00;;;;;;;2.54;100.00;62263.06;6197977;23;20170;-77
2021/12/17 08:08:16;;;;;;;3.28;2.97;;;;;;;2.54;100.00;62258.03;6199234;23;20190;-78
2021/12/17 08:10:47;;;;;;;3.58;3.28;;;;;;;2.50;100.00;62256.44;6202569;23;20224;-77
2021/12/17 08:13:19;;;;;;;4.00;3.70;;;;;;;2.51;100.00;62249.91;6205441;23;20212;-77
2021/12/17 08:15:58;;;;;;;3.90;3.55;;;;;;;2.58;100.00;62262.13;6209877;23;20170;-78
2021/12/17 08:18:44;;;;;;;3.28;2.97;;;;;;;2.64;100.00;62268.81;6207968;23;20216;-78
2021/12/17 08:26:54;;;;;;;4.65;3.33;;;;;;;2.60;100.00;62264.72;6199533;23;20178;-77
2021/12/17 08:29:44;;;;;;;3.45;3.15;;;;;;;2.59;100.00;62271.22;6199617;23;20253;-77
2021/12/17 08:32:12;;;;;;;4.35;3.78;;;;;;;2.62;100.00;62266.25;6199813;23;20221;-77
2021/12/17 08:34:39;;;;;;;4.10;3.80;;;;;;;2.56;100.00;62260.59;6198042;23;20190;-78
2021/12/17 08:37:07;;;;;;;3.88;3.45;;;;;;;2.67;100.00;62271.91;6199164;23;20182;-78
2021/12/17 08:39:34;;;;;;;3.35;3.15;;;;;;;2.72;100.00;62279.03;6198549;23;20204;-78
2021/12/17 08:42:02;;;;;;;2.63;2.50;;;;;;;2.86;100.00;62293.44;6199054;23;20158;-77
2021/12/17 08:44:30;;;;;;;3.15;2.70;;;;;;;2.87;100.00;62294.44;6199461;23;20190;-79
2021/12/17 08:46:56;;;;;;;3.63;3.33;;;;;;;2.94;100.00;62301.63;6197918;23;20174;-78
2021/12/17 08:49:23;;;;;;;3.55;3.35;;;;;;;3.02;100.00;62310.38;6197791;23;20194;-77
2021/12/17 08:51:51;;;;;;;3.00;2.78;;;;;;;3.04;100.00;62309.41;6198349;23;20227;-77
2021/12/17 08:54:18;;;;;;;5.63;3.80;;;;;;;2.99;100.00;62304.78;6197325;23;20189;-76
2021/12/17 08:56:47;;;;;;;4.63;3.63;;;;;;;3.02;100.00;62307.34;6197064;23;20182;-77
2021/12/17 08:59:17;;;;;;;3.78;3.47;;;;;;;2.98;100.00;62303.25;6199368;23;20499;-79
2021/12/17 09:01:44;;;;;;;3.25;2.95;;;;;;;3.05;100.00;62312.94;6198645;23;20228;-77
2021/12/17 09:04:11;;;;;;;7.40;2.67;;;;;;;3.16;100.00;62319.75;6200574;23;20237;-77
2021/12/17 09:06:38;;;;;;;2.90;2.72;;;;;;;3.19;100.00;62325.34;6196826;23;20170;-77
2021/12/17 09:09:06;;;;;;;3.38;3.15;;;;;;;3.20;100.00;62326.38;6197276;23;20214;-78
2021/12/17 09:11:33;;;;;;;2.88;2.67;;;;;;;3.24;100.00;62335.00;6197452;23;20186;-77
2021/12/17 09:14:02;;;;;;;3.03;2.67;;;;;;;3.22;100.00;62333.47;6197106;23;20198;-76
2021/12/17 09:16:30;;;;;;;2.88;2.67;;;;;;;3.27;100.00;62333.03;6195936;23;20170;-77
2021/12/17 09:18:58;;;;;;;3.45;1.92;;;;;;;3.15;100.00;62318.72;6196442;23;20198;-77
2021/12/17 09:21:25;;;;;;;2.80;2.60;;;;;;;3.24;100.00;62330.50;6197369;23;20178;-76
2021/12/17 09:23:52;;;;;;;2.47;2.25;;;;;;;3.20;100.00;62328.88;6197729;23;20515;-77
2021/12/17 09:26:19;;;;;;;2.63;2.42;;;;;;;3.23;100.00;62334.47;6197535;23;20212;-78
2021/12/17 09:28:47;;;;;;;2.67;2.50;;;;;;;3.24;100.00;62330.50;6198621;23;20421;-78
2021/12/17 09:31:14;;;;;;;2.63;2.47;;;;;;;3.24;100.00;62329.97;6197961;23;20163;-80
2021/12/17 09:33:46;;;;;;;2.58;2.47;;;;;;;3.20;100.00;62328.38;6196836;23;20534;-78
2021/12/17 09:36:13;;;;;;;3.47;3.28;;;;;;;3.20;100.00;62328.88;6197427;23;20178;-79
2021/12/17 09:38:40;;;;;;;3.53;3.22;;;;;;;3.14;100.00;62320.19;6198661;23;20249;-79
2021/12/17 09:41:08;;;;;;;3.72;3.42;;;;;;;3.15;100.00;62318.72;6197627;23;20467;-77
2021/12/17 09:43:36;;;;;;;3.10;2.90;;;;;;;3.19;100.00;62325.34;6197534;23;20178;-78
2021/12/17 09:46:05;;;;;;;3.15;2.95;;;;;;;3.09;100.00;62314.56;6198487;23;20273;-78
2021/12/17 09:48:34;;;;;;;3.15;2.90;;;;;;;3.07;100.00;62310.47;6196981;23;20196;-78
2021/12/17 09:51:04;;;;;;;3.10;2.90;;;;;;;3.10;100.00;62313.06;6197888;23;20170;-79
2021/12/17 09:53:32;;;;;;;4.30;3.72;;;;;;;3.11;100.00;62319.09;6197844;23;20258;-79
2021/12/17 09:55:59;;;;;;;3.88;3.58;;;;;;;3.20;100.00;62333.91;6197130;23;20257;-79
2021/12/17 09:58:26;;;;;;;4.22;3.35;;;;;;;3.23;100.00;62331.44;6198423;23;20433;-79
2021/12/17 10:00:53;;;;;;;4.10;3.70;;;;;;;3.21;100.00;62326.88;6197923;23;20200;-79
2021/12/17 10:03:20;;;;;;;3.92;3.60;;;;;;;3.20;100.00;62328.88;6197785;23;20178;-77
2021/12/17 10:05:47;;;;;;;3.45;3.25;;;;;;;3.11;100.00;62317.13;6197224;23;20174;-78
2021/12/17 10:08:19;;;;;;;2.90;2.70;;;;;;;3.31;100.00;62340.19;6197037;23;20186;-79
2021/12/17 10:10:48;;;;;;;5.43;4.10;;;;;;;3.48;100.00;62364.72;6197360;23;20253;-78
2021/12/17 10:13:19;;;;;;;4.35;3.50;;;;;;;3.50;100.00;62352.16;6197722;23;20245;-78
2021/12/17 10:15:49;;;;;;;3.88;3.58;;;;;;;3.63;100.00;62372.06;6197730;23;20189;-77
2021/12/17 10:18:17;;;;;;;4.30;3.90;;;;;;;3.69;100.00;62375.72;6197333;23;20249;-78
2021/12/17 10:20:58;;;;;;;4.22;3.90;;;;;;;3.85;100.00;62392.19;6196926;23;20522;-78
2021/12/17 10:23:28;;;;;;;4.07;3.58;;;;;;;3.95;100.00;62408.00;6195963;23;20213;-78
2021/12/17 10:25:55;;;;;;;2.95;2.75;;;;;;;4.11;100.00;62416.91;6197026;23;20182;-78
2021/12/17 10:28:23;;;;;;;3.65;3.35;;;;;;;4.26;100.00;62434.84;6196486;23;20192;-77
2021/12/17 10:30:51;;;;;;;3.42;3.10;;;;;;;4.34;100.00;62445.63;6196757;23;20178;-77
2021/12/17 10:33:23;;;;;;;3.28;2.97;;;;;;;4.30;100.00;62438.47;6197872;23;20190;-79
2021/12/17 10:35:51;;;;;;;2.65;2.47;;;;;;;4.28;100.00;62434.41;6201813;23;20174;-78
2021/12/17 10:38:23;;;;;;;2.47;2.28;;;;;;;4.15;100.00;62423.56;6199699;23;20194;-78
2021/12/17 10:40:56;;;;;;;2.13;2.03;;;;;;;4.06;100.00;62416.28;6197727;23;20170;-78
2021/12/17 10:43:27;;;;;;;2.00;1.90;;;;;;;3.96;100.00;62406.53;6198461;23;20445;-77
2021/12/17 10:46:02;;;;;;;2.47;2.38;;;;;;;4.08;100.00;62416.34;6197597;23;20178;-78
2021/12/17 10:48:34;;;;;;;2.85;2.65;;;;;;;3.90;100.00;62397.81;6197572;23;20208;-77
2021/12/17 10:51:16;;;;;;;2.70;2.53;;;;;;;4.02;100.00;62409.66;6197230;23;20181;-77
2021/12/17 10:53:46;;;;;;;2.05;1.95;;;;;;;4.09;100.00;62419.88;6198438;23;20194;-77
2021/12/17 10:56:17;;;;;;;2.13;2.03;;;;;;;4.03;100.00;62413.22;6200931;23;20182;-78
2021/12/17 10:58:56;;;;;;;2.70;2.50;;;;;;;4.02;100.00;62412.69;6198437;23;20202;-77
2021/12/17 11:01:32;;;;;;;2.65;2.47;;;;;;;4.00;100.00;62410.66;6200191;23;20253;-77
2021/12/17 11:04:12;;;;;;;2.47;2.38;;;;;;;3.98;100.00;62408.59;6200310;23;20202;-77
2021/12/17 11:06:44;;;;;;;1.98;1.88;;;;;;;3.68;100.00;62375.19;6200309;23;20225;-77
2021/12/17 11:09:11;;;;;;;2.33;2.20;;;;;;;3.75;100.00;62379.38;6201412;23;20186;-78
2021/12/17 11:11:42;;;;;;;2.85;2.55;;;;;;;3.70;100.00;62379.25;6205312;23;20196;-78
2021/12/17 11:14:09;;;;;;;3.63;3.33;;;;;;;3.64;100.00;62376.13;6206110;23;20221;-77
2021/12/17 11:16:38;;;;;;;4.30;4.00;;;;;;;3.57;100.00;62363.38;6203580;23;20178;-78
2021/12/17 11:19:06;;;;;;;2.40;2.30;;;;;;;3.70;100.00;62379.25;6202637;23;20384;-77
2021/12/17 11:21:33;;;;;;;3.22;3.03;;;;;;;3.80;100.00;62385.03;6201925;23;20233;-78
2021/12/17 11:24:01;;;;;;;2.38;2.25;;;;;;;3.84;100.00;62394.19;6197835;23;20290;-77
2021/12/17 11:26:29;;;;;;;2.65;2.45;;;;;;;3.80;100.00;62387.53;6197433;23;20460;-76
2021/12/17 11:29:03;;;;;;;2.95;2.75;;;;;;;3.77;100.00;62386.47;6196715;23;20188;-77
2021/12/17 11:31:31;;;;;;;2.95;2.75;;;;;;;3.73;100.00;62382.34;6197230;23;20469;-77
2021/12/17 11:34:00;;;;;;;2.63;2.50;;;;;;;3.76;100.00;62382.91;6196637;23;20182;-78
2021/12/17 11:36:28;;;;;;;3.08;2.50;;;;;;;3.66;100.00;62375.66;6198545;23;20185;-77
2021/12/17 11:39:03;;;;;;;3.03;2.83;;;;;;;3.68;100.00;62379.72;6198612;23;20205;-78
2021/12/17 11:41:41;;;;;;;2.97;2.78;;;;;;;3.66;100.00;62372.63;6198109;23;20224;-77
2021/12/17 11:44:12;;;;;;;2.70;2.50;;;;;;;3.65;100.00;62369.59;6198273;23;20211;-79
2021/12/17 11:46:39;;;;;;;2.72;2.53;;;;;;;3.57;100.00;62366.41;6198198;23;20229;-78
2021/12/17 11:49:13;;;;;;;2.97;2.80;;;;;;;3.47;100.00;62351.59;6198272;23;20193;-78
2021/12/17 11:51:40;;;;;;;2.83;2.72;;;;;;;3.33;100.00;62339.22;6198205;23;20177;-78
2021/12/17 11:54:09;;;;;;;3.03;2.83;;;;;;;3.12;100.00;62323.16;6198416;23;20194;-78
2021/12/17 11:56:55;;;;;;;5.78;2.95;;;;;;;3.13;100.00;62321.69;6197609;23;20190;-79
2021/12/17 11:59:38;;;;;;;3.60;3.30;;;;;;;3.19;100.00;62330.38;6197887;23;20251;-78
2021/12/17 12:02:11;;;;;;;3.00;2.80;;;;;;;3.17;100.00;62328.31;6198540;23;20212;-78
2021/12/17 12:04:57;;;;;;;2.75;2.55;;;;;;;3.16;100.00;62326.75;6197278;23;20193;-78
2021/12/17 12:07:36;;;;;;;2.67;2.50;;;;;;;3.18;100.00;62324.31;6197138;23;20182;-77
2021/12/17 12:10:08;;;;;;;2.15;2.05;;;;;;;3.16;100.00;62321.72;6197231;23;20154;-77
2021/12/17 12:13:11;;;;;;;2.22;2.10;;;;;;;3.10;100.00;62313.59;6198089;23;20221;-77
2021/12/17 12:15:40;;;;;;;2.70;2.50;;;;;;;3.08;100.00;62319.06;6196785;23;20339;-77
2021/12/17 12:18:19;;;;;;;3.03;2.83;;;;;;;3.10;100.00;62320.59;6196511;23;20184;-78
2021/12/17 12:20:59;;;;;;;2.38;2.28;;;;;;;2.99;100.00;62309.81;6196852;23;20253;-76
2021/12/17 12:23:47;;;;;;;2.47;2.28;;;;;;;2.97;100.00;62302.22;6196289;23;20217;-78
2021/12/17 12:26:26;;;;;;;3.42;3.13;;;;;;;2.99;100.00;62309.81;6196546;23;20178;-76
2021/12/17 12:28:57;;;;;;;4.32;3.45;;;;;;;3.01;100.00;62303.81;6196335;23;20190;-78
2021/12/17 12:31:56;;;;;;;3.10;2.85;;;;;;;3.02;100.00;62302.84;6197308;23;20178;-78
2021/12/17 12:34:33;;;;;;;2.72;2.53;;;;;;;3.01;100.00;62308.84;6196711;23;20205;-77
2021/12/17 12:37:03;;;;;;;4.05;2.83;;;;;;;3.02;100.00;62307.84;6197894;23;20197;-77
2021/12/17 12:39:33;;;;;;;3.28;2.97;;;;;;;3.09;100.00;62314.56;6196887;23;20213;-78
2021/12/17 12:42:04;;;;;;;2.88;2.78;;;;;;;3.14;100.00;62320.19;6196903;23;20393;-78
2021/12/17 12:45:10;;;;;;;2.60;2.40;;;;;;;3.23;100.00;62329.44;6196496;23;20387;-77
2021/12/17 12:47:50;;;;;;;2.00;1.90;;;;;;;3.25;100.00;62329.00;6196709;23;20200;-77
2021/12/17 12:50:18;;;;;;;1.98;1.88;;;;;;;3.17;100.00;62320.78;6196035;23;20166;-77
2021/12/17 12:52:47;;;;;;;2.38;1.83;;;;;;;3.11;100.00;62319.63;6196538;23;20252;-78
2021/12/17 12:55:18;;;;;;;2.40;2.30;;;;;;;3.05;100.00;62308.44;6196830;23;20518;-78
2021/12/17 12:57:48;;;;;;;1.75;1.65;;;;;;;3.01;100.00;62303.81;6195964;23;20256;-78
2021/12/17 13:00:19;;;;;;;1.73;1.63;;;;;;;3.02;100.00;62312.88;6196206;23;20201;-78
2021/12/17 13:02:51;;;;;;;1.80;1.70;;;;;;;3.03;100.00;62313.41;6196506;23;20190;-78
2021/12/17 13:05:18;;;;;;;2.30;1.45;;;;;;;3.11;100.00;62322.16;6197102;23;20471;-78
2021/12/17 13:07:47;;;;;;;1.48;1.48;;;;;;;3.12;100.00;62315.63;6198054;23;20194;-77
2021/12/17 13:10:17;;;;;;;1.95;1.85;;;;;;;3.22;100.00;62327.91;6196863;23;20178;-78
2021/12/17 13:12:50;;;;;;;1.27;1.27;;;;;;;3.22;100.00;62328.44;6198110;23;20244;-78
2021/12/17 13:15:32;;;;;;;1.05;1.05;;;;;;;3.28;100.00;62334.59;6197847;23;20197;-80
2021/12/17 13:23:39;;;;;;;3.15;1.60;;;;;;;3.49;97.47;62358.69;6198541;23;20249;-78
2021/12/17 13:26:08;;;;;;;1.42;1.33;;;;;;;3.45;97.77;62359.09;6199476;23;20209;-78
2021/12/17 13:28:51;;;;;;;1.27;1.27;;;;;;;3.38;98.46;62347.38;6198336;23;20194;-78
2021/12/17 13:31:40;;;;;;;1.58;1.30;;;;;;;3.27;99.41;62335.56;6198886;23;20181;-78
2021/12/17 13:34:11;;;;;;;1.70;1.60;;;;;;;3.14;99.26;62320.19;6205899;23;20189;-78
2021/12/17 13:36:43;;;;;;;1.70;1.60;;;;;;;3.17;99.75;62323.28;6204677;23;20178;-79
2021/12/17 13:39:12;;;;;;;1.77;1.67;;;;;;;3.05;99.42;62310.44;6199068;23;20220;-78
2021/12/17 13:41:42;;;;;;;1.80;1.70;;;;;;;3.10;100.00;62311.06;6197943;23;20170;-79
2021/12/17 13:44:35;;;;;;;1.92;1.83;;;;;;;3.05;100.00;62313.47;6202778;23;20205;-77
2021/12/17 13:47:24;;;;;;;2.47;2.28;;;;;;;2.99;100.00;62301.75;6201974;23;20224;-80
2021/12/17 13:49:55;;;;;;;2.10;1.95;;;;;;;3.01;100.00;62306.31;6202825;23;20166;-78
2021/12/17 13:52:24;;;;;;;2.50;1.77;;;;;;;2.98;100.00;62303.75;6202965;23;20168;-77
2021/12/17 13:55:11;;;;;;;6.82;4.38;;;;;;;3.08;100.00;62316.56;6199067;23;20285;-81
2021/12/17 13:57:37;;;;;;;5.80;4.05;;;;;;;2.92;100.00;62295.06;6206147;23;20566;-78
2021/12/17 14:00:10;;;;;;;5.43;3.50;;;;;;;2.92;100.00;62300.09;6209979;23;20194;-78
2021/12/17 14:02:41;;;;;;;9.05;6.10;;;;;;;2.79;100.00;62278.69;6212365;22;20197;-78